sensor_id;sensor_type;location;lat;lon;timestamp;pressure;altitude;pressure_sealevel;temperature;humidity
12172;BME280;6149;52.418;13.668;2023-02-11T00:01:45;102493.63;;;1.91;100.00
12172;BME280;6149;52.418;13.668;2023-02-11T00:04:14;102487.66;;;1.99;100.00
12172;BME280;6149;52.418;13.668;2023-02-11T00:06:40;102491.00;;;1.91;100.00
12172;BME280;6149;52.418;13.668;2023-02-11T00:09:08;102484.03;;;1.88;100.00
12172;BME280;6149;52.418;13.668;2023-02-11T00:11:37;102485.75;;;1.88;100.00
12172;BME280;6149;52.418;13.668;2023-02-11T00:14:05;102490.22;;;1.96;100.00
12172;BME280;6149;52.418;13.668;2023-02-11T00:16:32;102488.41;;;1.91;100.00
12172;BME280;6149;52.418;13.668;2023-02-11T00:19:00;102484.06;;;1.91;100.00
12172;BME280;6149;52.418;13.668;2023-02-11T00:21:28;102494.41;;;1.82;100.00
12172;BME280;6149;52.418;13.668;2023-02-11T00:23:56;102499.69;;;1.90;100.00
12172;BME280;6149;52.418;13.668;2023-02-11T00:26:25;102505.88;;;1.96;100.00
12172;BME280;6149;52.418;13.668;2023-02-11T00:28:53;102519.84;;;2.00;100.00
12172;BME280;6149;52.418;13.668;2023-02-11T00:31:22;102518.16;;;2.05;100.00
12172;BME280;6149;52.418;13.668;2023-02-11T00:33:49;102513.84;;;2.07;100.00
12172;BME280;6149;52.418;13.668;2023-02-11T00:36:20;102515.69;;;2.16;100.00
12172;BME280;6149;52.418;13.668;2023-02-11T00:38:50;102496.44;;;2.06;100.00
12172;BME280;6149;52.418;13.668;2023-02-11T00:41:18;102492.16;;;2.11;100.00
12172;BME280;6149;52.418;13.668;2023-02-11T00:43:45;102487.88;;;2.16;100.00
12172;BME280;6149;52.418;13.668;2023-02-11T00:46:12;102474.75;;;2.12;100.00
12172;BME280;6149;52.418;13.668;2023-02-11T00:48:39;102491.28;;;2.12;100.00
12172;BME280;6149;52.418;13.668;2023-02-11T00:51:06;102486.97;;;2.14;100.00
12172;BME280;6149;52.418;13.668;2023-02-11T00:53:32;102484.34;;;2.13;100.00
12172;BME280;6149;52.418;13.668;2023-02-11T00:56:01;102487.78;;;2.10;100.00
12172;BME280;6149;52.418;13.668;2023-02-11T00:58:28;102489.59;;;2.16;100.00
12172;BME280;6149;52.418;13.668;2023-02-11T01:00:56;102485.22;;;2.13;100.00
12172;BME280;6149;52.418;13.668;2023-02-11T01:03:23;102488.69;;;2.12;100.00
12172;BME280;6149;52.418;13.668;2023-02-11T01:05:50;102479.19;;;2.17;100.00
12172;BME280;6149;52.418;13.668;2023-02-11T01:08:16;102484.50;;;2.29;100.00
12172;BME280;6149;52.418;13.668;2023-02-11T01:10:43;102490.56;;;2.27;100.00
12172;BME280;6149;52.418;13.668;2023-02-11T01:13:11;102469.69;;;2.22;100.00
12172;BME280;6149;52.418;13.668;2023-02-11T01:15:38;102455.78;;;2.28;100.00
12172;BME280;6149;52.418;13.668;2023-02-11T01:18:05;102447.97;;;2.28;100.00
12172;BME280;6149;52.418;13.668;2023-02-11T01:20:31;102446.22;;;2.28;100.00
12172;BME280;6149;52.418;13.668;2023-02-11T01:22:58;102436.72;;;2.33;100.00
12172;BME280;6149;52.418;13.668;2023-02-11T01:25:25;102435.00;;;2.35;100.00
12172;BME280;6149;52.418;13.668;2023-02-11T01:27:51;102432.34;;;2.32;100.00
12172;BME280;6149;52.418;13.668;2023-02-11T01:30:19;102426.22;;;2.29;100.00
12172;BME280;6149;52.418;13.668;2023-02-11T01:32:46;102418.34;;;2.26;100.00
12172;BME280;6149;52.418;13.668;2023-02-11T01:35:12;102407.91;;;2.21;100.00
12172;BME280;6149;52.418;13.668;2023-02-11T01:37:39;102415.75;;;2.26;100.00
12172;BME280;6149;52.418;13.668;2023-02-11T01:40:11;102422.69;;;2.24;100.00
12172;BME280;6149;52.418;13.668;2023-02-11T01:42:39;102423.63;;;2.29;100.00
12172;BME280;6149;52.418;13.668;2023-02-11T01:48:27;102425.28;;;2.24;100.00
12172;BME280;6149;52.418;13.668;2023-02-11T01:50:59;102417.47;;;2.22;100.00
12172;BME280;6149;52.418;13.668;2023-02-11T01:53:29;102415.72;;;2.21;100.00
12172;BME280;6149;52.418;13.668;2023-02-11T01:56:15;102399.22;;;2.22;100.00
12172;BME280;6149;52.418;13.668;2023-02-11T01:59:04;102397.47;;;2.21;100.00
12172;BME280;6149;52.418;13.668;2023-02-11T02:01:37;102400.06;;;2.23;100.00
12172;BME280;6149;52.418;13.668;2023-02-11T02:04:06;102401.09;;;2.37;100.00
12172;BME280;6149;52.418;13.668;2023-02-11T02:06:34;102390.50;;;2.23;100.00
12172;BME280;6149;52.418;13.668;2023-02-11T02:09:07;102397.50;;;2.29;100.00
12172;BME280;6149;52.418;13.668;2023-02-11T02:11:35;102402.00;;;2.41;100.00
12172;BME280;6149;52.418;13.668;2023-02-11T02:14:01;102396.75;;;2.39;100.00
12172;BME280;6149;52.418;13.668;2023-02-11T02:16:31;102401.91;;;2.34;100.00
12172;BME280;6149;52.418;13.668;2023-02-11T02:19:18;102404.66;;;2.45;100.00
12172;BME280;6149;52.418;13.668;2023-02-11T02:22:10;102389.81;;;2.43;100.00
12172;BME280;6149;52.418;13.668;2023-02-11T02:25:06;102388.88;;;2.36;100.00
12172;BME280;6149;52.418;13.668;2023-02-11T02:27:49;102381.09;;;2.39;100.00
12172;BME280;6149;52.418;13.668;2023-02-11T02:30:31;102381.09;;;2.39;100.00
12172;BME280;6149;52.418;13.668;2023-02-11T02:33:20;102379.31;;;2.35;100.00
12172;BME280;6149;52.418;13.668;2023-02-11T02:35:59;102361.88;;;2.32;100.00
12172;BME280;6149;52.418;13.668;2023-02-11T02:38:34;102355.13;;;2.56;100.00
12172;BME280;6149;52.418;13.668;2023-02-11T02:41:06;102373.31;;;2.45;100.00
12172;BME280;6149;52.418;13.668;2023-02-11T02:43:38;102362.97;;;2.56;100.00
12172;BME280;6149;52.418;13.668;2023-02-11T02:46:11;102355.13;;;2.54;100.00
12172;BME280;6149;52.418;13.668;2023-02-11T02:48:41;102347.22;;;2.47;100.00
12172;BME280;6149;52.418;13.668;2023-02-11T02:51:16;102351.59;;;2.49;100.00
12172;BME280;6149;52.418;13.668;2023-02-11T02:54:12;102357.75;;;2.60;100.00
12172;BME280;6149;52.418;13.668;2023-02-11T02:56:53;102356.91;;;2.63;100.00
12172;BME280;6149;52.418;13.668;2023-02-11T02:59:35;102354.31;;;2.64;100.00
12172;BME280;6149;52.418;13.668;2023-02-11T03:02:13;102330.94;;;2.80;100.00
12172;BME280;6149;52.418;13.668;2023-02-11T03:04:48;102327.41;;;2.73;100.00
12172;BME280;6149;52.418;13.668;2023-02-11T03:07:24;102332.66;;;2.78;100.00
12172;BME280;6149;52.418;13.668;2023-02-11T03:10:01;102339.63;;;2.79;100.00
12172;BME280;6149;52.418;13.668;2023-02-11T03:12:33;102334.41;;;2.79;100.00
12172;BME280;6149;52.418;13.668;2023-02-11T03:15:02;102330.06;;;2.79;100.00
12172;BME280;6149;52.418;13.668;2023-02-11T03:17:34;102337.06;;;2.85;100.00
12172;BME280;6149;52.418;13.668;2023-02-11T03:20:05;102334.41;;;2.79;100.00
12172;BME280;6149;52.418;13.668;2023-02-11T03:22:41;102336.97;;;2.74;100.00
12172;BME280;6149;52.418;13.668;2023-02-11T03:25:11;102337.03;;;2.80;100.00
12172;BME280;6149;52.418;13.668;2023-02-11T03:27:42;102336.19;;;2.83;100.00
12172;BME280;6149;52.418;13.668;2023-02-11T03:30:15;102333.56;;;2.84;100.00
12172;BME280;6149;52.418;13.668;2023-02-11T03:32:48;102330.91;;;2.78;100.00
12172;BME280;6149;52.418;13.668;2023-02-11T03:35:20;102323.09;;;2.81;100.00
12172;BME280;6149;52.418;13.668;2023-02-11T03:37:51;102330.91;;;2.75;100.00
12172;BME280;6149;52.418;13.668;2023-02-11T03:40:21;102315.31;;;2.86;100.00
12172;BME280;6149;52.418;13.668;2023-02-11T03:42:53;102318.78;;;2.88;100.00
12172;BME280;6149;52.418;13.668;2023-02-11T03:45:24;102312.69;;;2.84;100.00
12172;BME280;6149;52.418;13.668;2023-02-11T03:47:55;102328.34;;;2.84;100.00
12172;BME280;6149;52.418;13.668;2023-02-11T03:50:29;102317.91;;;2.87;100.00
12172;BME280;6149;52.418;13.668;2023-02-11T03:52:59;102335.28;;;2.81;100.00
12172;BME280;6149;52.418;13.668;2023-02-11T03:55:28;102331.97;;;3.11;100.00
12172;BME280;6149;52.418;13.668;2023-02-11T03:57:58;102317.94;;;2.92;100.00
12172;BME280;6149;52.418;13.668;2023-02-11T04:00:29;102319.72;;;2.96;100.00
12172;BME280;6149;52.418;13.668;2023-02-11T04:02:56;102310.09;;;2.89;100.00
12172;BME280;6149;52.418;13.668;2023-02-11T04:05:22;102304.91;;;2.99;100.00
12172;BME280;6149;52.418;13.668;2023-02-11T04:07:50;102303.22;;;3.08;100.00
12172;BME280;6149;52.418;13.668;2023-02-11T04:10:17;102290.13;;;2.97;100.00
12172;BME280;6149;52.418;13.668;2023-02-11T04:12:43;102303.19;;;3.06;100.00
12172;BME280;6149;52.418;13.668;2023-02-11T04:15:10;102309.34;;;3.13;100.00
12172;BME280;6149;52.418;13.668;2023-02-11T04:17:37;102305.84;;;3.09;100.00
12172;BME280;6149;52.418;13.668;2023-02-11T04:20:04;102317.19;;;3.13;100.00
12172;BME280;6149;52.418;13.668;2023-02-11T04:22:31;102311.13;;;3.21;100.00
12172;BME280;6149;52.418;13.668;2023-02-11T04:24:59;102311.13;;;3.23;100.00
12172;BME280;6149;52.418;13.668;2023-02-11T04:27:25;102312.03;;;3.25;100.00
12172;BME280;6149;52.418;13.668;2023-02-11T04:29:52;102307.66;;;3.21;100.00
12172;BME280;6149;52.418;13.668;2023-02-11T04:32:18;102314.63;;;3.22;100.00
12172;BME280;6149;52.418;13.668;2023-02-11T04:34:45;102307.69;;;3.28;100.00
12172;BME280;6149;52.418;13.668;2023-02-11T04:37:11;102314.59;;;3.19;100.00
12172;BME280;6149;52.418;13.668;2023-02-11T04:39:38;102312.91;;;3.25;100.00
12172;BME280;6149;52.418;13.668;2023-02-11T04:42:06;102312.00;;;3.20;100.00
12172;BME280;6149;52.418;13.668;2023-02-11T04:44:33;102285.88;;;3.23;100.00
12172;BME280;6149;52.418;13.668;2023-02-11T04:47:00;102292.81;;;3.20;100.00
12172;BME280;6149;52.418;13.668;2023-02-11T04:49:26;102287.66;;;3.32;100.00
12172;BME280;6149;52.418;13.668;2023-02-11T04:51:53;102291.13;;;3.29;100.00
12172;BME280;6149;52.418;13.668;2023-02-11T04:54:20;102292.88;;;3.27;100.00
12172;BME280;6149;52.418;13.668;2023-02-11T04:56:47;102295.53;;;3.44;100.00
12172;BME280;6149;52.418;13.668;2023-02-11T04:59:15;102291.16;;;3.40;100.00
12172;BME280;6149;52.418;13.668;2023-02-11T05:01:41;102288.56;;;3.51;100.00
12172;BME280;6149;52.418;13.668;2023-02-11T05:04:08;102278.91;;;3.34;100.00
12172;BME280;6149;52.418;13.668;2023-02-11T05:06:36;102270.22;;;3.40;100.00
12172;BME280;6149;52.418;13.668;2023-02-11T05:09:03;102271.97;;;3.40;100.00
12172;BME280;6149;52.418;13.668;2023-02-11T05:11:30;102262.38;;;3.40;100.00
12172;BME280;6149;52.418;13.668;2023-02-11T05:13:56;102255.44;;;3.47;100.00
12172;BME280;6149;52.418;13.668;2023-02-11T05:16:24;102252.81;;;3.44;100.00
12172;BME280;6149;52.418;13.668;2023-02-11T05:18:52;102238.00;;;3.32;100.00
12172;BME280;6149;52.418;13.668;2023-02-11T05:21:19;102236.22;;;3.37;100.00
12172;BME280;6149;52.418;13.668;2023-02-11T05:23:47;102234.50;;;3.36;100.00
12172;BME280;6149;52.418;13.668;2023-02-11T05:26:14;102226.66;;;3.31;100.00
12172;BME280;6149;52.418;13.668;2023-02-11T05:28:41;102221.44;;;3.42;100.00
12172;BME280;6149;52.418;13.668;2023-02-11T05:31:07;102224.06;;;3.42;100.00
12172;BME280;6149;52.418;13.668;2023-02-11T05:33:36;102223.16;;;3.31;100.00
12172;BME280;6149;52.418;13.668;2023-02-11T05:36:05;102216.22;;;3.50;100.00
12172;BME280;6149;52.418;13.668;2023-02-11T05:38:33;102227.53;;;3.44;100.00
12172;BME280;6149;52.418;13.668;2023-02-11T05:41:01;102214.47;;;3.46;100.00
12172;BME280;6149;52.418;13.668;2023-02-11T05:43:28;102218.81;;;3.42;100.00
12172;BME280;6149;52.418;13.668;2023-02-11T05:45:54;102219.69;;;3.46;100.00
12172;BME280;6149;52.418;13.668;2023-02-11T05:48:21;102223.19;;;3.48;100.00
12172;BME280;6149;52.418;13.668;2023-02-11T05:50:49;102211.00;;;3.50;100.00
12172;BME280;6149;52.418;13.668;2023-02-11T05:53:15;102211.91;;;3.67;100.00
12172;BME280;6149;52.418;13.668;2023-02-11T05:55:42;102203.19;;;3.63;100.00
12172;BME280;6149;52.418;13.668;2023-02-11T05:58:09;102204.94;;;3.61;100.00
12172;BME280;6149;52.418;13.668;2023-02-11T06:00:36;102208.41;;;3.66;100.00
12172;BME280;6149;52.418;13.668;2023-02-11T06:03:03;102217.13;;;3.67;100.00
12172;BME280;6149;52.418;13.668;2023-02-11T06:05:30;102218.00;;;3.64;100.00
12172;BME280;6149;52.418;13.668;2023-02-11T06:07:58;102230.22;;;3.65;100.00
12172;BME280;6149;52.418;13.668;2023-02-11T06:10:25;102236.31;;;3.66;100.00
12172;BME280;6149;52.418;13.668;2023-02-11T06:12:52;102222.34;;;3.72;100.00
12172;BME280;6149;52.418;13.668;2023-02-11T06:15:19;102230.19;;;3.75;100.00
12172;BME280;6149;52.418;13.668;2023-02-11T06:17:45;102240.66;;;3.72;100.00
12172;BME280;6149;52.418;13.668;2023-02-11T06:20:12;102245.91;;;3.70;100.00
12172;BME280;6149;52.418;13.668;2023-02-11T06:22:38;102232.81;;;3.75;100.00
12172;BME280;6149;52.418;13.668;2023-02-11T06:25:07;102241.56;;;3.71;100.00
12172;BME280;6149;52.418;13.668;2023-02-11T06:27:35;102240.66;;;3.78;100.00
12172;BME280;6149;52.418;13.668;2023-02-11T06:30:01;102235.44;;;3.72;100.00
12172;BME280;6149;52.418;13.668;2023-02-11T06:32:28;102235.44;;;3.76;100.00
12172;BME280;6149;52.418;13.668;2023-02-11T06:34:55;102240.69;;;3.88;100.00
12172;BME280;6149;52.418;13.668;2023-02-11T06:37:21;102251.13;;;3.76;100.00
12172;BME280;6149;52.418;13.668;2023-02-11T06:39:49;102245.91;;;3.81;100.00
12172;BME280;6149;52.418;13.668;2023-02-11T06:42:17;102246.78;;;3.80;100.00
12172;BME280;6149;52.418;13.668;2023-02-11T06:44:44;102236.31;;;3.86;100.00
12172;BME280;6149;52.418;13.668;2023-02-11T06:47:10;102227.59;;;3.85;100.00
12172;BME280;6149;52.418;13.668;2023-02-11T06:49:37;102225.00;;;3.93;100.00
12172;BME280;6149;52.418;13.668;2023-02-11T06:52:03;102220.66;;;4.01;100.00
12172;BME280;6149;52.418;13.668;2023-02-11T06:54:30;102216.28;;;3.97;100.00
12172;BME280;6149;52.418;13.668;2023-02-11T06:56:57;102216.28;;;3.94;100.00
12172;BME280;6149;52.418;13.668;2023-02-11T06:59:24;102216.28;;;4.01;100.00
12172;BME280;6149;52.418;13.668;2023-02-11T07:01:51;102212.78;;;4.02;100.00
12172;BME280;6149;52.418;13.668;2023-02-11T07:04:18;102212.75;;;4.12;100.00
12172;BME280;6149;52.418;13.668;2023-02-11T07:06:44;102219.75;;;4.11;100.00
12172;BME280;6149;52.418;13.668;2023-02-11T07:09:11;102211.91;;;4.05;100.00
12172;BME280;6149;52.418;13.668;2023-02-11T07:11:37;102212.78;;;3.98;100.00
12172;BME280;6149;52.418;13.668;2023-02-11T07:14:06;102221.50;;;4.03;100.00
12172;BME280;6149;52.418;13.668;2023-02-11T07:16:35;102223.25;;;4.04;100.00
12172;BME280;6149;52.418;13.668;2023-02-11T07:19:01;102217.16;;;4.00;100.00
12172;BME280;6149;52.418;13.668;2023-02-11T07:21:28;102207.53;;;4.12;100.00
12172;BME280;6149;52.418;13.668;2023-02-11T07:23:55;102220.63;;;4.13;100.00
12172;BME280;6149;52.418;13.668;2023-02-11T07:26:23;102204.91;;;4.19;100.00
12172;BME280;6149;52.418;13.668;2023-02-11T07:28:50;102201.41;;;4.16;100.00
12172;BME280;6149;52.418;13.668;2023-02-11T07:31:20;102204.03;;;4.13;100.00
12172;BME280;6149;52.418;13.668;2023-02-11T07:33:51;102203.16;;;4.17;100.00
12172;BME280;6149;52.418;13.668;2023-02-11T07:36:19;102190.94;;;4.29;100.00
12172;BME280;6149;52.418;13.668;2023-02-11T07:38:46;102196.19;;;4.29;100.00
12172;BME280;6149;52.418;13.668;2023-02-11T07:41:14;102193.53;;;4.42;100.00
12172;BME280;6149;52.418;13.668;2023-02-11T07:43:43;102183.94;;;4.38;100.00
12172;BME280;6149;52.418;13.668;2023-02-11T07:46:13;102181.31;;;4.38;100.00
12172;BME280;6149;52.418;13.668;2023-02-11T07:48:41;102176.09;;;4.41;100.00
12172;BME280;6149;52.418;13.668;2023-02-11T07:51:11;102171.69;;;4.46;100.00
12172;BME280;6149;52.418;13.668;2023-02-11T07:53:38;102182.13;;;4.58;100.00
12172;BME280;6149;52.418;13.668;2023-02-11T07:56:06;102167.31;;;4.51;100.00
12172;BME280;6149;52.418;13.668;2023-02-11T07:58:34;102187.38;;;4.50;100.00
12172;BME280;6149;52.418;13.668;2023-02-11T08:01:02;102183.00;;;4.57;100.00
12172;BME280;6149;52.418;13.668;2023-02-11T08:03:28;102178.63;;;4.65;100.00
12172;BME280;6149;52.418;13.668;2023-02-11T08:05:55;102186.47;;;4.66;100.00
12172;BME280;6149;52.418;13.668;2023-02-11T08:08:25;102190.81;;;4.80;100.00
12172;BME280;6149;52.418;13.668;2023-02-11T08:10:52;102193.44;;;4.77;100.00
12172;BME280;6149;52.418;13.668;2023-02-11T08:13:19;102198.63;;;4.87;100.00
12172;BME280;6149;52.418;13.668;2023-02-11T08:15:45;102211.69;;;4.93;100.00
12172;BME280;6149;52.418;13.668;2023-02-11T08:18:12;102222.16;;;4.99;100.00
12172;BME280;6149;52.418;13.668;2023-02-11T08:20:38;102219.53;;;4.99;100.00
12172;BME280;6149;52.418;13.668;2023-02-11T08:23:06;102229.13;;;5.03;100.00
12172;BME280;6149;52.418;13.668;2023-02-11T08:25:34;102236.13;;;5.08;100.00
12172;BME280;6149;52.418;13.668;2023-02-11T08:28:01;102229.13;;;5.10;100.00
12172;BME280;6149;52.418;13.668;2023-02-11T08:30:27;102219.50;;;5.09;100.00
12172;BME280;6149;52.418;13.668;2023-02-11T08:32:54;102226.53;;;5.02;100.00
12172;BME280;6149;52.418;13.668;2023-02-11T08:35:21;102223.91;;;5.03;100.00
12172;BME280;6149;52.418;13.668;2023-02-11T08:37:48;102216.91;;;5.06;100.00
12172;BME280;6149;52.418;13.668;2023-02-11T08:40:15;102210.75;;;5.14;100.00
12172;BME280;6149;52.418;13.668;2023-02-11T08:42:43;102212.47;;;5.17;100.00
12172;BME280;6149;52.418;13.668;2023-02-11T08:45:10;102225.63;;;5.11;100.00
12172;BME280;6149;52.418;13.668;2023-02-11T08:47:37;102223.00;;;5.12;100.00
12172;BME280;6149;52.418;13.668;2023-02-11T09:52:18;102249.03;;;5.44;100.00
12172;BME280;6149;52.418;13.668;2023-02-11T09:54:54;102255.97;;;5.56;100.00
12172;BME280;6149;52.418;13.668;2023-02-11T09:57:23;102258.63;;;5.51;100.00
12172;BME280;6149;52.418;13.668;2023-02-11T09:59:52;102260.28;;;5.61;100.00
12172;BME280;6149;52.418;13.668;2023-02-11T10:02:22;102263.88;;;5.51;100.00
12172;BME280;6149;52.418;13.668;2023-02-11T10:05:10;102268.16;;;5.61;100.00
12172;BME280;6149;52.418;13.668;2023-02-11T10:07:47;102264.69;;;5.58;100.00
12172;BME280;6149;52.418;13.668;2023-02-11T10:10:30;102276.88;;;5.68;100.00
12172;BME280;6149;52.418;13.668;2023-02-11T10:13:17;102292.63;;;5.68;100.00
12172;BME280;6149;52.418;13.668;2023-02-11T10:16:03;102293.47;;;5.71;100.00
12172;BME280;6149;52.418;13.668;2023-02-11T10:18:45;102290.03;;;5.63;100.00
12172;BME280;6149;52.418;13.668;2023-02-11T10:21:22;102287.34;;;5.76;100.00
12172;BME280;6149;52.418;13.668;2023-02-11T10:23:58;102282.13;;;5.71;100.00
12172;BME280;6149;52.418;13.668;2023-02-11T10:26:29;102271.59;;;5.74;100.00
12172;BME280;6149;52.418;13.668;2023-02-11T10:29:00;102270.75;;;5.67;100.00
12172;BME280;6149;52.418;13.668;2023-02-11T10:31:35;102269.84;;;5.71;100.00
12172;BME280;6149;52.418;13.668;2023-02-11T10:34:05;102273.38;;;5.66;100.00
12172;BME280;6149;52.418;13.668;2023-02-11T10:36:36;102282.16;;;5.63;100.00
12172;BME280;6149;52.418;13.668;2023-02-11T10:39:11;102284.75;;;5.69;100.00
12172;BME280;6149;52.418;13.668;2023-02-11T10:41:43;102267.25;;;5.70;100.00
12172;BME280;6149;52.418;13.668;2023-02-11T10:44:23;102264.59;;;5.76;100.00
12172;BME280;6149;52.418;13.668;2023-02-11T10:46:52;102266.31;;;5.79;100.00
12172;BME280;6149;52.418;13.668;2023-02-11T10:49:34;102252.31;;;5.78;100.00
12172;BME280;6149;52.418;13.668;2023-02-11T10:52:16;102247.06;;;5.78;100.00
12172;BME280;6149;52.418;13.668;2023-02-11T10:55:00;102247.06;;;5.83;100.00
12172;BME280;6149;52.418;13.668;2023-02-11T10:57:32;102244.44;;;5.83;100.00
12172;BME280;6149;52.418;13.668;2023-02-11T11:00:07;102233.94;;;5.80;100.00
12172;BME280;6149;52.418;13.668;2023-02-11T11:02:52;102233.91;;;5.87;100.00
12172;BME280;6149;52.418;13.668;2023-02-11T11:05:28;102227.72;;;5.96;100.00
12172;BME280;6149;52.418;13.668;2023-02-11T11:07:58;102214.66;;;5.91;100.00
12172;BME280;6149;52.418;13.668;2023-02-11T11:10:46;102204.91;;;6.02;100.00
12172;BME280;6149;52.418;13.668;2023-02-11T11:13:26;102204.13;;;5.93;100.00
12172;BME280;6149;52.418;13.668;2023-02-11T11:16:08;102207.53;;;6.01;100.00
12172;BME280;6149;52.418;13.668;2023-02-11T11:18:47;102203.25;;;5.94;100.00
12172;BME280;6149;52.418;13.668;2023-02-11T11:21:18;102212.81;;;5.99;100.00
12172;BME280;6149;52.418;13.668;2023-02-11T11:23:55;102219.78;;;6.00;100.00
12172;BME280;6149;52.418;13.668;2023-02-11T11:26:28;102217.19;;;5.97;100.00
12172;BME280;6149;52.418;13.668;2023-02-11T11:29:08;102213.69;;;5.97;100.00
12172;BME280;6149;52.418;13.668;2023-02-11T11:31:45;102208.41;;;6.03;100.00
12172;BME280;6149;52.418;13.668;2023-02-11T11:34:20;102204.03;;;6.02;100.00
12172;BME280;6149;52.418;13.668;2023-02-11T11:36:49;102193.59;;;5.96;100.00
12172;BME280;6149;52.418;13.668;2023-02-11T11:39:22;102207.56;;;5.98;100.00
12172;BME280;6149;52.418;13.668;2023-02-11T11:41:56;102207.56;;;5.99;100.00
12172;BME280;6149;52.418;13.668;2023-02-11T11:44:26;102221.59;;;5.95;100.00
12172;BME280;6149;52.418;13.668;2023-02-11T11:47:21;102211.09;;;5.95;100.00
12172;BME280;6149;52.418;13.668;2023-02-11T11:50:08;102210.13;;;6.07;100.00
12172;BME280;6149;52.418;13.668;2023-02-11T11:52:47;102215.41;;;6.01;100.00
12172;BME280;6149;52.418;13.668;2023-02-11T11:55:19;102224.16;;;6.03;100.00
12172;BME280;6149;52.418;13.668;2023-02-11T11:57:49;102223.28;;;6.02;100.00
12172;BME280;6149;52.418;13.668;2023-02-11T12:00:19;102220.66;;;6.01;100.00
12172;BME280;6149;52.418;13.668;2023-02-11T12:03:07;102224.09;;;6.12;100.00
12172;BME280;6149;52.418;13.668;2023-02-11T12:05:51;102220.63;;;6.09;100.00
12172;BME280;6149;52.418;13.668;2023-02-11T12:08:32;102225.00;;;6.05;100.00
12172;BME280;6149;52.418;13.668;2023-02-11T12:11:11;102213.56;;;6.15;100.00
12172;BME280;6149;52.418;13.668;2023-02-11T12:13:53;102208.28;;;6.18;100.00
12172;BME280;6149;52.418;13.668;2023-02-11T12:16:34;102216.13;;;6.21;100.00
12172;BME280;6149;52.418;13.668;2023-02-11T12:19:31;102216.09;;;6.24;100.00
12172;BME280;6149;52.418;13.668;2023-02-11T12:22:09;102210.03;;;6.19;100.00
12172;BME280;6149;52.418;13.668;2023-02-11T12:24:48;102210.81;;;6.29;100.00
12172;BME280;6149;52.418;13.668;2023-02-11T12:27:34;102210.88;;;6.20;100.00
12172;BME280;6149;52.418;13.668;2023-02-11T12:30:19;102207.38;;;6.22;100.00
12172;BME280;6149;52.418;13.668;2023-02-11T12:33:04;102207.25;;;6.33;100.00
12172;BME280;6149;52.418;13.668;2023-02-11T12:35:43;102204.63;;;6.33;100.00
12172;BME280;6149;52.418;13.668;2023-02-11T12:38:31;102197.56;;;6.36;100.00
12172;BME280;6149;52.418;13.668;2023-02-11T12:41:18;102204.59;;;6.34;100.00
12172;BME280;6149;52.418;13.668;2023-02-11T12:44:15;102208.03;;;6.41;100.00
12172;BME280;6149;52.418;13.668;2023-02-11T12:46:55;102215.91;;;6.41;100.00
12172;BME280;6149;52.418;13.668;2023-02-11T12:49:40;102215.03;;;6.44;100.00
12172;BME280;6149;52.418;13.668;2023-02-11T12:52:31;102222.06;;;6.40;100.00
12172;BME280;6149;52.418;13.668;2023-02-11T12:55:10;102224.69;;;6.38;100.00
12172;BME280;6149;52.418;13.668;2023-02-11T12:57:45;102224.72;;;6.35;100.00
12172;BME280;6149;52.418;13.668;2023-02-11T13:00:16;102217.66;;;6.44;100.00
12172;BME280;6149;52.418;13.668;2023-02-11T13:02:49;102215.84;;;6.49;100.00
12172;BME280;6149;52.418;13.668;2023-02-11T13:05:24;102213.16;;;6.55;100.00
12172;BME280;6149;52.418;13.668;2023-02-11T13:07:58;102210.59;;;6.49;100.00
12172;BME280;6149;52.418;13.668;2023-02-11T13:10:31;102228.94;;;6.55;100.00
12172;BME280;6149;52.418;13.668;2023-02-11T13:13:01;102226.22;;;6.64;100.00
12172;BME280;6149;52.418;13.668;2023-02-11T13:15:42;102235.91;;;6.57;100.00
12172;BME280;6149;52.418;13.668;2023-02-11T13:18:23;102241.16;;;6.60;100.00
12172;BME280;6149;52.418;13.668;2023-02-11T13:20:59;102241.97;;;6.64;100.00
12172;BME280;6149;52.418;13.668;2023-02-11T13:23:50;102242.84;;;6.64;100.00
12172;BME280;6149;52.418;13.668;2023-02-11T13:26:28;102246.28;;;6.69;100.00
12172;BME280;6149;52.418;13.668;2023-02-11T13:29:09;102243.69;;;6.68;100.00
12172;BME280;6149;52.418;13.668;2023-02-11T13:31:41;102248.94;;;6.68;100.00
12172;BME280;6149;52.418;13.668;2023-02-11T13:34:25;102257.75;;;6.64;100.00
12172;BME280;6149;52.418;13.668;2023-02-11T13:36:53;102262.88;;;6.73;100.00
12172;BME280;6149;52.418;13.668;2023-02-11T13:39:21;102265.63;;;6.64;100.00
12172;BME280;6149;52.418;13.668;2023-02-11T13:41:49;102255.19;;;6.56;100.00
12172;BME280;6149;52.418;13.668;2023-02-11T13:44:24;102254.28;;;6.62;100.00
12172;BME280;6149;52.418;13.668;2023-02-11T13:46:55;102257.72;;;6.67;100.00
12172;BME280;6149;52.418;13.668;2023-02-11T13:49:29;102263.88;;;6.64;100.00
12172;BME280;6149;52.418;13.668;2023-02-11T13:51:58;102263.06;;;6.58;100.00
12172;BME280;6149;52.418;13.668;2023-02-11T13:54:29;102272.66;;;6.63;100.00
12172;BME280;6149;52.418;13.668;2023-02-11T13:57:21;102276.13;;;6.67;100.00
12172;BME280;6149;52.418;13.668;2023-02-11T13:59:57;102263.88;;;6.66;100.00
12172;BME280;6149;52.418;13.668;2023-02-11T14:02:29;102264.72;;;6.68;100.00
12172;BME280;6149;52.418;13.668;2023-02-11T14:05:24;102262.88;;;6.73;100.00
12172;BME280;6149;52.418;13.668;2023-02-11T14:08:17;102266.38;;;6.74;100.00
12172;BME280;6149;52.418;13.668;2023-02-11T14:11:05;102267.25;;;6.74;100.00
12172;BME280;6149;52.418;13.668;2023-02-11T14:17:27;102264.72;;;6.68;100.00
12172;BME280;6149;52.418;13.668;2023-02-11T14:19:56;102259.50;;;6.63;100.00
12172;BME280;6149;52.418;13.668;2023-02-11T14:22:26;102249.88;;;6.62;100.00
12172;BME280;6149;52.418;13.668;2023-02-11T14:24:58;102256.03;;;6.60;100.00